Craig, Colorado
Current Conditions -  °F | °C
As of 8:53 AM on Monday 22 Dec 2014 (Local Time) from KCAG Reporting Station
Broken Clouds Broken Clouds  
Wind Chill: 20°   Ceiling: 10000
Heat Index: 31°   Visibility: 10mi
Dew Point: 26°   Wind: 16mph
Humidity: 82%   Direction: 240°WSW
Pressure: 29.83"   Gusts: NA
Location:  40.51°N, 107.54°W
Report Text: KCAG 221553Z AUTO 24014KT 10SM FEW075 BKN100 M01/M03 A2983 RMK AO2 SLP111 T10061033 $
Loading
Personal Weather Stations






























Interactive Weather Map New forecast layout! Learn more

10-Day Weather Forecast

Advertisements
Track Severe Weather on mobile